KRNT - Renton, Washington, USA
Distance from station: W 21mi, 33km
Updated: Sat, 02-Mar-2024 3:53am PST

 Wind from calm
Wind: Calm
Temperature: 39°F , 4°C
Dew Point: 36°F , 2°C
Humidity: 87%
Barometer: 29.29 inHg , 991.9 hPa
Visibility: 10 miles , 16 km
Cloud details: 7500 ft
2024/03/02 11:53 KRNT 021153Z AUTO 00000KT 10SM BKN075 04/02 A2929 RMK AO2 SLP925 60000 70002 T00390017 10044 20028 53002
KBFI - Seattle/Boeing, Washington, USA
Distance from station: W 25mi, 41km
Updated: Sat, 02-Mar-2024 3:53am PST

 Wind from SSE
Wind: SSE 5 mph , 7 km/h
Temperature: 37°F , 3°C
Wind Chill: 33°F , 1°C
Dew Point: 34°F , 1°C
Humidity: 87%
Barometer: 29.29 inHg , 991.9 hPa
Visibility: 10 miles , 16 km
Cloud details: 8500 ft
11000 ft
2024/03/02 11:53 KBFI 021153Z 15004KT 10SM SCT085 BKN110 03/01 A2929 RMK AO2 SLP919 60000 70011 T00280006 10044 20028 53001
 
KSEA - Seattle/Metro, Washington, USA
Distance from station: W 25mi, 41km
Updated: Sat, 02-Mar-2024 3:53am PST

 Wind from S
Wind: S 8 mph , 13 km/h
Temperature: 37°F , 3°C
Wind Chill: 31°F , -1°C
Dew Point: 30°F , -1°C
Humidity: 75%
Barometer: 29.28 inHg , 991.5 hPa
Visibility: 10 miles , 16 km
Cloud details: 3000 ft
7500 ft
9000 ft
2024/03/02 11:53 KSEA 021153Z 19007KT 10SM SCT030 BKN075 BKN090 03/M01 A2928 RMK AO2 SLP924 60000 70013 T00331006 10061 20028 53003
KSMP - Stampede Pass, Washington, USA
Distance from station: SE 26mi, 41km
Updated: Sat, 02-Mar-2024 3:56am PST

 Wind from calm
Wind: Calm
Temperature: 25°F , -4°C
Dew Point: 21°F , -6°C
Humidity: 86%
Barometer: 29.18 inHg , 988.1 hPa
Visibility: 7 miles , 11 km
Cloud details: 200 ft
4100 ft
2024/03/02 11:56 KSMP 021156Z AUTO 00000KT 7SM BKN002 OVC041 M04/M06 A2918 RMK AO2 SNE22 SLP904 P0000 60002 70018 I6000 T10441056 11039 21044 56003
 
KPLU - Puyallup/Thun, Washington, USA
Distance from station: SW 36mi, 59km
Updated: Sat, 02-Mar-2024 4:15am PST

 Wind from calm
Wind: Calm
Temperature: 39°F , 4°C
Dew Point: 34°F , 1°C
Humidity: 81%
Barometer: 29.29 inHg , 991.9 hPa
Visibility: 10 miles , 16 km
2024/03/02 12:15 KPLU 021215Z AUTO 00000KT 10SM 04/01 A2929 RMK AO2
KPAE - Everett, Washington, USA
Distance from station: NW 37mi, 60km
Updated: Sat, 02-Mar-2024 3:53am PST
Light rain, Overcast
Light rain, Overcast
 Wind from SSE
Wind: SSE 10 mph , 17 km/h, Gust: 20 mph , 31 km/h
Temperature: 39°F , 4°C
Wind Chill: 32°F , 0°C
Dew Point: 32°F , 0°C
Humidity: 75%
Barometer: 29.28 inHg , 991.5 hPa
Visibility: 10 miles , 16 km
Cloud details: 2600 ft
2024/03/02 11:53 KPAE 021153Z AUTO 15009G17KT 10SM -RA OVC026 04/00 A2928 RMK AO2 RAB34 SLP917 P0000 60000 70008 T00390000 10050 20033 53001
 
KTIW - Tacoma, Washington, USA
Distance from station: WSW 41mi, 66km
Updated: Sat, 02-Mar-2024 3:53am PST

 Wind from S
Wind: S 9 mph , 15 km/h
Temperature: 37°F , 3°C
Wind Chill: 30°F , -1°C
Dew Point: 34°F , 1°C
Humidity: 87%
Barometer: 29.29 inHg , 991.9 hPa
Visibility: 10 miles , 16 km
Cloud details: 4100 ft
7000 ft
2024/03/02 11:53 KTIW 021153Z 19008KT 10SM FEW041 OVC070 03/01 A2929 RMK AO2 SLP920 60000 70006 T00330006 10044 20033 53003
KTCM - Tacoma/Mc Chord, Washington, USA
Distance from station: SW 42mi, 67km
Updated: Sat, 02-Mar-2024 4:14am PST
Light rain, Overcast
Light rain, Overcast
 Wind from S
Wind: S 6 mph , 9 km/h
Temperature: 36°F , 2°C
Wind Chill: 31°F , -1°C
Dew Point: 34°F , 1°C
Humidity: 93%
Barometer: 29.29 inHg , 991.9 hPa
Visibility: 10 miles , 16 km
Cloud details: 1300 ft
2700 ft
4300 ft
5500 ft
2024/03/02 12:14 KTCM 021214Z AUTO 18005KT 10SM -RA FEW013 SCT027 BKN043 OVC055 02/01 A2929 RMK AO2 RAB14 SLP924 $
 
KPWT - Bremerton Ntnl, Washington, USA
Distance from station: W 45mi, 73km
Updated: Sat, 02-Mar-2024 3:56am PST

 Wind from S
Wind: S 6 mph , 9 km/h
Temperature: 36°F , 2°C
Wind Chill: 31°F , -1°C
Dew Point: 36°F , 2°C
Humidity: 100%
Barometer: 29.28 inHg , 991.5 hPa
Visibility: 10 miles , 16 km
Cloud details: 1300 ft
4000 ft
2024/03/02 11:56 KPWT 021156Z AUTO 19005KT 10SM BKN013 OVC040 02/02 A2928 RMK AO2 RAE30 SLP921 P0000 60000 70025 T00220022 10028 20011 53002 FZRANO
KGRF - Fort Lewis/Gray, Washington, USA
Distance from station: SW 48mi, 77km
Updated: Sat, 02-Mar-2024 3:55am PST

 Wind from SSE
Wind: SSE 8 mph , 13 km/h
Temperature: 37°F , 3°C
Wind Chill: 31°F , -1°C
Dew Point: 34°F , 1°C
Humidity: 87%
Barometer: 29.26 inHg , 990.9 hPa
Visibility: 10 miles , 16 km
Cloud details: 2400 ft
4600 ft
6500 ft
2024/03/02 11:55 KGRF 021155Z 15007KT 10SM SCT024 BKN046 OVC065 03/01 A2926 RMK AO2A SLP913 60000 70001 T00280010 10051 20011 53003 $
 
KAWO - Arlington Muni, Washington, USA
Distance from station: NNW 50mi, 80km
Updated: Sat, 02-Mar-2024 3:56am PST

 Wind from ESE
Wind: ESE 7 mph , 11 km/h
Temperature: 37°F , 3°C
Wind Chill: 32°F , 0°C
Dew Point: 34°F , 1°C
Humidity: 87%
Barometer: 29.30 inHg , 992.2 hPa
Visibility: 10 miles , 16 km
Cloud details: 3500 ft
2024/03/02 11:56 KAWO 021156Z AUTO 12006KT 10SM OVC035 03/01 A2930 RMK AO2 RAE50 SLP925 P0000 60001 70007 T00280011 10033 20006 51003